Stevens Point, Wisconsin
Current Conditions -  °F | °C
As of 1:15 AM on Wednesday 22 Oct 2014 (Local Time) from KSTE Reporting Station
Clear Clear  
Wind Chill: 27°   Ceiling: Unl
Heat Index: 27°   Visibility: 10mi
Dew Point: 26°   Wind: 0mph
Humidity: 96%   Direction: NA
Pressure: 30.3"   Gusts: NA
Location:  44.52°N, 89.57°W
Report Text: KSTE 220615Z AUTO 00000KT 10SM CLR M03/M03 A3030 RMK AO2 T10281034
Loading
Personal Weather Stations






























Interactive Weather Map New forecast layout! Learn more

10-Day Weather Forecast

Advertisements
Track Severe Weather on mobile